createdAt,value
2018-04-12T00:01:57.976Z,15.67
2018-04-12T00:04:27.117Z,15.50
2018-04-12T00:06:56.248Z,15.90
2018-04-12T00:09:25.369Z,16.20
2018-04-12T00:11:54.500Z,15.50
2018-04-12T00:14:23.644Z,15.97
2018-04-12T00:16:52.753Z,16.43
2018-04-12T00:19:21.895Z,17.60
2018-04-12T00:21:51.012Z,16.03
2018-04-12T00:24:20.124Z,15.40
2018-04-12T00:26:49.241Z,16.33
2018-04-12T00:29:18.377Z,16.37
2018-04-12T00:31:47.514Z,18.23
2018-04-12T00:34:16.620Z,17.20
2018-04-12T00:36:45.768Z,16.90
2018-04-12T00:39:14.876Z,16.87
2018-04-12T00:41:43.994Z,17.20
2018-04-12T00:44:13.126Z,16.37
2018-04-12T00:46:42.308Z,16.87
2018-04-12T00:51:57.851Z,16.23
2018-04-12T00:54:26.973Z,16.57
2018-04-12T00:56:56.099Z,15.97
2018-04-12T00:59:25.231Z,16.50
2018-04-12T01:01:54.341Z,16.40
2018-04-12T01:04:23.476Z,14.70
2018-04-12T01:06:52.611Z,15.80
2018-04-12T01:09:21.739Z,15.67
2018-04-12T01:14:37.333Z,15.20
2018-04-12T01:17:06.457Z,14.83
2018-04-12T01:19:35.576Z,14.73
2018-04-12T01:22:04.703Z,15.33
2018-04-12T01:24:33.848Z,13.90
2018-04-12T01:27:02.960Z,15.07
2018-04-12T01:29:32.080Z,15.90
2018-04-12T01:32:01.224Z,16.00
2018-04-12T01:34:30.370Z,14.83
2018-04-12T01:36:59.480Z,17.50
2018-04-12T01:39:28.640Z,16.30
2018-04-12T01:41:57.759Z,17.90
2018-04-12T01:44:26.869Z,17.47
2018-04-12T01:46:56.007Z,17.60
2018-04-12T01:52:11.506Z,17.20
2018-04-12T01:54:40.644Z,18.10
2018-04-12T01:57:09.766Z,17.97
2018-04-12T01:59:38.870Z,18.27
2018-04-12T02:02:07.998Z,18.40
2018-04-12T02:04:37.119Z,17.90
2018-04-12T02:07:06.233Z,16.70
2018-04-12T02:09:35.372Z,16.70
2018-04-12T02:12:04.491Z,17.83
2018-04-12T02:14:33.627Z,16.67
2018-04-12T02:17:02.732Z,15.23
2018-04-12T02:19:31.861Z,14.97
2018-04-12T02:22:01.016Z,15.40
2018-04-12T02:24:30.122Z,15.40
2018-04-12T02:26:59.261Z,15.53
2018-04-12T02:29:28.456Z,14.90
2018-04-12T02:31:57.580Z,16.33
2018-04-12T02:34:26.705Z,14.67
2018-04-12T02:36:55.861Z,16.50
2018-04-12T02:39:25.000Z,16.60
2018-04-12T02:41:54.133Z,15.20
2018-04-12T02:44:23.250Z,15.30
2018-04-12T02:46:52.368Z,16.07
2018-04-12T02:49:21.492Z,16.60
2018-04-12T02:51:50.622Z,17.07
2018-04-12T02:54:19.771Z,16.57
2018-04-12T02:56:48.907Z,16.23
2018-04-12T02:59:18.044Z,16.73
2018-04-12T03:01:47.184Z,16.80
2018-04-12T03:04:16.309Z,15.10
2018-04-12T03:06:45.424Z,15.73
2018-04-12T03:09:14.536Z,14.87
2018-04-12T03:11:43.672Z,15.10
2018-04-12T03:14:12.799Z,16.33
2018-04-12T03:16:41.920Z,16.67
2018-04-12T03:19:11.053Z,15.33
2018-04-12T03:21:40.183Z,16.27
2018-04-12T03:24:09.299Z,15.50
2018-04-12T03:26:38.410Z,15.47
2018-04-12T03:29:07.554Z,14.83
2018-04-12T03:31:36.697Z,14.60
2018-04-12T03:34:05.812Z,15.47
2018-04-12T03:36:34.929Z,15.37
2018-04-12T03:39:04.059Z,14.37
2018-04-12T03:41:33.188Z,15.10
2018-04-12T03:44:02.300Z,15.17
2018-04-12T03:46:31.442Z,15.83
2018-04-12T03:49:00.621Z,15.57
2018-04-12T03:51:29.696Z,15.37
2018-04-12T03:53:58.887Z,15.80
2018-04-12T03:56:28.045Z,15.20
2018-04-12T03:58:57.179Z,16.40
2018-04-12T04:01:26.292Z,15.60
2018-04-12T04:03:55.404Z,15.30
2018-04-12T04:06:24.532Z,15.20
2018-04-12T04:08:53.650Z,16.00
2018-04-12T04:11:22.777Z,16.00
2018-04-12T04:13:51.905Z,16.43
2018-04-12T04:16:26.962Z,16.00
2018-04-12T04:19:01.972Z,15.73
2018-04-12T04:21:31.096Z,15.77
2018-04-12T04:24:00.219Z,16.40
2018-04-12T04:26:29.328Z,16.50
2018-04-12T04:28:58.452Z,16.20
2018-04-12T04:31:27.568Z,16.50
2018-04-12T04:33:56.705Z,16.00
2018-04-12T04:36:25.851Z,15.33
2018-04-12T04:38:54.962Z,16.20
2018-04-12T04:41:24.083Z,15.43
2018-04-12T04:43:53.232Z,15.70
2018-04-12T04:46:22.372Z,16.07
2018-04-12T04:48:51.513Z,15.87
2018-04-12T04:51:20.649Z,15.10
2018-04-12T04:53:49.924Z,14.50
2018-04-12T04:56:19.067Z,15.47
2018-04-12T04:58:48.203Z,15.00
2018-04-12T05:01:17.344Z,15.93
2018-04-12T05:03:46.473Z,15.30
2018-04-12T05:06:15.604Z,15.30
2018-04-12T05:08:44.751Z,15.40
2018-04-12T05:11:13.875Z,14.80
2018-04-12T05:13:43.019Z,15.20
2018-04-12T05:16:12.152Z,15.30
2018-04-12T05:18:41.264Z,15.50
2018-04-12T05:21:10.439Z,14.67
2018-04-12T05:23:39.560Z,15.10
2018-04-12T05:26:08.685Z,14.83
2018-04-12T05:28:37.800Z,14.40
2018-04-12T05:31:06.950Z,16.13
2018-04-12T05:33:36.083Z,15.50
2018-04-12T05:36:05.208Z,14.53
2018-04-12T05:38:34.331Z,15.10
2018-04-12T05:41:03.471Z,15.20
2018-04-12T05:43:33.011Z,14.97
2018-04-12T05:46:02.141Z,14.90
2018-04-12T05:48:31.293Z,13.87
2018-04-12T05:51:00.415Z,13.53
2018-04-12T05:53:29.520Z,13.83
2018-04-12T05:55:58.643Z,13.07
2018-04-12T05:58:27.784Z,12.67
2018-04-12T06:00:56.913Z,12.80
2018-04-12T06:03:26.029Z,12.63
2018-04-12T06:05:55.152Z,13.70
2018-04-12T06:08:24.276Z,13.27
2018-04-12T06:10:53.403Z,13.47
2018-04-12T06:13:22.531Z,14.13
2018-04-12T06:15:51.680Z,13.03
2018-04-12T06:18:20.807Z,14.43
2018-04-12T06:20:49.945Z,12.80
2018-04-12T06:23:19.080Z,13.40
2018-04-12T06:25:48.197Z,13.77
2018-04-12T06:28:17.348Z,13.60
2018-04-12T06:30:46.569Z,14.27
2018-04-12T06:33:15.685Z,13.63
2018-04-12T06:35:44.797Z,12.67
2018-04-12T06:41:00.378Z,13.30
2018-04-12T06:43:29.591Z,13.57
2018-04-12T06:45:58.696Z,12.83
2018-04-12T06:48:27.817Z,12.37
2018-04-12T06:50:56.940Z,10.80
2018-04-12T06:53:26.081Z,12.80
2018-04-12T06:55:55.237Z,12.27
2018-04-12T06:58:24.345Z,11.00
2018-04-12T07:00:53.484Z,11.40
2018-04-12T07:03:22.600Z,11.30
2018-04-12T07:05:51.729Z,12.67
2018-04-12T07:08:20.868Z,13.03
2018-04-12T07:10:49.978Z,12.40
2018-04-12T07:13:19.094Z,11.53
2018-04-12T07:15:48.233Z,11.43
2018-04-12T07:18:17.384Z,10.93
2018-04-12T07:20:46.488Z,10.47
2018-04-12T07:23:16.508Z,9.17
2018-04-12T07:25:45.620Z,10.63
2018-04-12T07:28:14.739Z,9.47
2018-04-12T07:30:43.872Z,9.90
2018-04-12T07:33:13.013Z,9.93
2018-04-12T07:35:42.146Z,9.03
2018-04-12T07:38:11.272Z,9.50
2018-04-12T07:40:40.378Z,9.43
2018-04-12T07:43:09.481Z,9.23
2018-04-12T07:45:38.596Z,10.07
2018-04-12T07:48:07.705Z,9.57
2018-04-12T07:50:36.824Z,9.07
2018-04-12T07:53:05.956Z,9.87
2018-04-12T07:55:35.068Z,9.53
2018-04-12T07:58:04.212Z,8.97
2018-04-12T22:08:23.967Z,11.90
2018-04-12T22:10:53.094Z,12.33
2018-04-12T22:13:22.228Z,11.30
2018-04-12T22:15:51.388Z,12.03
2018-04-12T22:18:20.507Z,11.10
2018-04-12T22:20:49.656Z,11.30
2018-04-12T22:23:18.813Z,11.80
2018-04-12T22:25:47.952Z,11.60
2018-04-12T22:28:17.067Z,11.43
2018-04-12T22:30:46.183Z,11.77
2018-04-12T22:33:15.291Z,12.10
2018-04-12T22:35:44.432Z,11.77
2018-04-12T22:38:13.552Z,12.00
2018-04-12T22:40:42.735Z,11.90
2018-04-12T22:43:11.924Z,11.57
2018-04-12T22:45:41.041Z,11.53
2018-04-12T22:48:10.172Z,12.30
2018-04-12T22:50:39.309Z,11.80
2018-04-12T22:53:08.450Z,11.80
2018-04-12T22:55:37.572Z,12.37
2018-04-12T22:58:06.741Z,12.73
2018-04-12T23:00:35.867Z,12.20
2018-04-12T23:03:05.011Z,12.50
2018-04-12T23:05:34.124Z,12.20
2018-04-12T23:08:03.238Z,12.40
2018-04-12T23:10:32.349Z,12.17
2018-04-12T23:13:01.938Z,12.60
2018-04-12T23:15:31.071Z,13.87
2018-04-12T23:18:00.215Z,13.07
2018-04-12T23:20:29.386Z,12.23
2018-04-12T23:22:58.519Z,12.43
2018-04-12T23:25:27.675Z,13.50
2018-04-12T23:27:56.817Z,12.20
2018-04-12T23:30:25.947Z,12.00
2018-04-12T23:32:55.085Z,12.30
2018-04-12T23:35:24.214Z,12.53
2018-04-12T23:37:53.343Z,13.27
2018-04-12T23:40:22.544Z,12.30
2018-04-12T23:42:51.673Z,11.57
2018-04-12T23:45:20.792Z,12.10
2018-04-12T23:47:49.907Z,11.90
2018-04-12T23:50:19.032Z,12.73
2018-04-12T23:52:48.162Z,12.83
2018-04-12T23:55:17.304Z,12.20
2018-04-12T23:57:46.412Z,12.23
